createdAt,value
2019-01-19T06:55:42.026Z,101653.41
2019-01-19T06:58:13.421Z,101653.92
2019-01-19T07:00:44.080Z,101658.67
2019-01-19T07:03:14.705Z,101663.95
2019-01-19T07:05:45.408Z,101665.34
2019-01-19T07:08:16.013Z,101660.31
2019-01-19T07:10:46.563Z,101660.27
2019-01-19T07:13:17.172Z,101665.34
2019-01-19T07:15:47.939Z,101669.52
2019-01-19T07:18:18.562Z,101666.55
2019-01-19T07:20:49.399Z,101669.38
2019-01-19T07:23:20.013Z,101670.75
2019-01-19T07:25:50.625Z,101676.98
2019-01-19T07:28:21.230Z,101680.45
2019-01-19T07:30:51.872Z,101675.82
2019-01-19T07:33:22.454Z,101680.18
2019-01-19T07:35:53.112Z,101688.08
2019-01-19T07:38:24.106Z,101682.56
2019-01-19T07:40:54.745Z,101688.11
2019-01-19T07:43:25.716Z,101682.95
2019-01-19T07:45:56.486Z,101685.47
2019-01-19T07:49:13.987Z,101688.88
2019-01-19T07:51:35.891Z,101697.02
2019-01-19T07:54:08.499Z,101693.92
2019-01-19T07:56:39.220Z,101699.98
2019-01-19T07:59:10.244Z,101698.69
2019-01-19T08:02:02.665Z,101701.24
2019-01-19T08:04:30.839Z,101703.31
2019-01-19T08:07:01.563Z,101709.27
2019-01-19T08:09:32.203Z,101717.80
2019-01-19T08:12:02.910Z,101706.97
2019-01-19T08:14:33.489Z,101704.76
2019-01-19T08:17:03.977Z,101705.13
2019-01-19T08:19:34.659Z,101705.06
2019-01-19T08:22:05.209Z,101703.77
2019-01-19T08:24:36.596Z,101711.38
2019-01-19T08:27:10.616Z,101709.27
2019-01-19T08:29:41.657Z,101710.04
2019-01-19T08:32:17.202Z,101712.23
2019-01-19T08:34:49.540Z,101709.50
2019-01-19T08:37:24.503Z,101713.27
2019-01-19T08:39:57.662Z,101708.95
2019-01-19T08:42:30.090Z,101708.44
2019-01-19T08:45:00.906Z,101707.98
2019-01-19T08:47:32.108Z,101719.19
2019-01-19T08:50:28.288Z,101717.00
2019-01-19T08:52:59.726Z,101713.52
2019-01-19T08:55:30.369Z,101716.88
2019-01-19T08:58:00.984Z,101711.64
2019-01-19T09:00:31.833Z,101712.03
2019-01-19T09:03:02.409Z,101713.21
2019-01-19T09:05:32.998Z,101714.89
2019-01-19T09:08:03.579Z,101720.04
2019-01-19T09:10:34.914Z,101725.14
2019-01-19T09:13:24.565Z,101719.09
2019-01-19T09:16:01.790Z,101720.31
2019-01-19T09:18:32.456Z,101715.98
2019-01-19T09:21:03.014Z,101715.44
2019-01-19T09:23:41.461Z,101718.73
2019-01-19T09:26:12.009Z,101718.24
2019-01-19T09:28:43.769Z,101722.41
2019-01-19T09:31:14.430Z,101726.92
2019-01-19T09:33:45.114Z,101719.06
2019-01-19T09:36:17.891Z,101725.81
2019-01-19T09:38:48.590Z,101717.03
2019-01-19T09:41:19.152Z,101729.89
2019-01-19T09:43:50.870Z,101725.61
2019-01-19T09:46:21.908Z,101729.49
2019-01-19T09:48:52.850Z,101725.86
2019-01-19T09:51:23.780Z,101731.84
2019-01-19T09:53:54.651Z,101728.72
2019-01-19T09:56:25.255Z,101735.55
2019-01-19T09:58:56.066Z,101735.44
2019-01-19T10:01:27.024Z,101737.08
2019-01-19T10:03:57.895Z,101740.42
2019-01-19T10:06:28.946Z,101730.81
2019-01-19T10:08:59.953Z,101732.09
2019-01-19T10:11:41.896Z,101735.80
2019-01-19T10:14:12.974Z,101734.83
2019-01-19T10:16:43.809Z,101737.67
2019-01-19T10:19:14.579Z,101733.61
2019-01-19T10:21:45.226Z,101730.16
2019-01-19T10:24:21.151Z,101730.07
2019-01-19T10:26:52.296Z,101727.30
2019-01-19T10:29:23.611Z,101730.20
2019-01-19T10:31:54.256Z,101728.75
2019-01-19T10:34:24.868Z,101724.89
2019-01-19T10:36:55.438Z,101726.23
2019-01-19T10:39:25.963Z,101719.13
2019-01-19T10:41:56.575Z,101720.59
2019-01-19T10:44:52.272Z,101716.23
2019-01-19T10:47:27.650Z,101713.70
2019-01-19T10:50:00.587Z,101714.40
2019-01-19T10:52:31.261Z,101714.84
2019-01-19T10:55:01.841Z,101711.67
2019-01-19T10:57:32.568Z,101712.00
2019-01-19T11:00:03.147Z,101704.72
2019-01-19T11:02:33.989Z,101704.61
2019-01-19T11:05:05.237Z,101708.77
2019-01-19T11:07:36.484Z,101711.69
2019-01-19T11:10:19.290Z,101712.81
2019-01-19T11:12:50.001Z,101709.38
2019-01-19T11:15:20.642Z,101709.61
2019-01-19T11:17:51.289Z,101704.95
2019-01-19T11:20:27.912Z,101705.45
2019-01-19T11:22:59.924Z,101701.53
2019-01-19T11:25:30.623Z,101704.92
2019-01-19T11:28:01.396Z,101698.42
2019-01-19T11:30:33.049Z,101693.16
2019-01-19T11:33:03.697Z,101691.83
2019-01-19T11:35:34.457Z,101693.91
2019-01-19T11:38:11.662Z,101688.61
2019-01-19T11:40:39.614Z,101688.53
2019-01-19T11:43:11.724Z,101683.81
2019-01-19T11:45:42.458Z,101677.13
2019-01-19T11:48:13.053Z,101681.34
2019-01-19T11:50:43.613Z,101671.86
2019-01-19T11:53:14.136Z,101679.50
2019-01-19T11:55:46.039Z,101666.34
2019-01-19T11:58:16.584Z,101667.77
2019-01-19T12:00:47.058Z,101663.48
2019-01-19T12:03:17.644Z,101659.50
2019-01-19T12:05:48.250Z,101663.80
2019-01-19T12:08:19.624Z,101659.34
2019-01-19T12:10:50.577Z,101659.39
2019-01-19T12:13:21.155Z,101651.51
2019-01-19T12:15:51.838Z,101641.47
2019-01-19T12:18:25.405Z,101651.67
2019-01-19T12:20:55.944Z,101647.77
2019-01-19T12:23:26.510Z,101650.29
2019-01-19T12:25:58.905Z,101651.04
2019-01-19T12:28:29.470Z,101650.91
2019-01-19T12:31:00.161Z,101645.80
2019-01-19T12:33:31.193Z,101648.16
2019-01-19T12:36:01.764Z,101645.52
2019-01-19T12:38:32.362Z,101641.97
2019-01-19T12:41:03.001Z,101640.58
2019-01-19T12:43:33.582Z,101634.48
2019-01-19T12:46:10.336Z,101630.58
2019-01-19T12:48:40.991Z,101632.31
2019-01-19T12:51:14.163Z,101628.77
2019-01-19T12:53:44.775Z,101624.91
2019-01-19T12:56:15.360Z,101623.48
2019-01-19T12:58:46.894Z,101627.58
2019-01-19T13:01:17.539Z,101620.06
2019-01-19T13:03:48.249Z,101618.36
2019-01-19T13:06:52.051Z,101613.08
2019-01-19T13:09:37.408Z,101618.67
2019-01-19T13:12:19.478Z,101604.38
2019-01-19T13:15:17.269Z,101608.66
2019-01-19T13:18:41.648Z,101602.08
2019-01-19T13:22:14.871Z,101606.27
2019-01-19T13:25:42.339Z,101600.47
2019-01-19T13:29:04.809Z,101594.36
2019-01-19T13:32:32.326Z,101597.39
2019-01-19T13:35:56.060Z,101597.27
2019-01-19T13:39:15.208Z,101586.31
2019-01-19T13:42:36.844Z,101587.22
2019-01-19T13:46:23.292Z,101584.23
2019-01-19T13:50:00.456Z,101587.39
2019-01-19T13:53:37.281Z,101583.78
2019-01-19T13:57:01.298Z,101576.81
2019-01-19T14:00:32.662Z,101574.61
2019-01-19T14:03:58.695Z,101563.81
2019-01-19T14:07:16.943Z,101572.87
2019-01-19T14:10:31.157Z,101571.88
2019-01-19T14:13:17.235Z,101571.05
2019-01-19T14:16:27.742Z,101568.67
2019-01-19T14:19:59.751Z,101564.16
2019-01-19T14:23:47.617Z,101565.77
2019-01-19T14:27:12.840Z,101564.08
2019-01-19T14:30:50.846Z,101555.37
2019-01-19T14:33:50.666Z,101556.67
2019-01-19T14:37:27.763Z,101555.97
2019-01-19T14:40:44.886Z,101555.58
2019-01-19T14:43:59.023Z,101552.68
2019-01-19T14:47:36.393Z,101560.88
2019-01-19T14:51:08.525Z,101554.97
2019-01-19T14:54:20.938Z,101555.53
2019-01-19T14:57:28.876Z,101554.02
2019-01-19T15:01:12.845Z,101559.42
2019-01-19T15:04:03.884Z,101556.47
2019-01-19T15:07:08.308Z,101556.47
2019-01-19T15:10:12.354Z,101553.96
2019-01-19T15:13:55.258Z,101555.47
2019-01-19T15:17:40.545Z,101556.41
2019-01-19T15:21:20.297Z,101548.31
2019-01-19T15:24:43.948Z,101548.25
2019-01-19T15:28:20.898Z,101555.96
2019-01-19T15:31:57.098Z,101546.20
2019-01-19T15:49:21.706Z,101550.25
2019-01-19T15:52:41.486Z,101550.48
2019-01-19T16:01:56.278Z,101551.63
2019-01-19T16:10:59.710Z,101537.64
2019-01-19T16:14:39.423Z,101542.97
2019-01-19T16:18:03.024Z,101544.70
2019-01-19T16:22:00.797Z,101543.14
2019-01-19T16:25:32.071Z,101545.47
2019-01-19T16:29:11.527Z,101546.90
2019-01-19T16:32:32.715Z,101551.19
2019-01-19T16:35:47.323Z,101548.63
2019-01-19T16:39:26.006Z,101554.34
2019-01-19T16:43:08.119Z,101550.12
2019-01-19T16:46:20.532Z,101549.39
2019-01-19T16:49:33.774Z,101547.39
2019-01-19T16:53:12.545Z,101550.52
2019-01-19T16:56:33.092Z,101549.28
2019-01-19T17:00:16.598Z,101549.05
2019-01-19T17:03:50.650Z,101543.53
2019-01-19T17:07:10.961Z,101543.66
2019-01-19T17:10:09.566Z,101539.53
2019-01-19T17:13:40.107Z,101537.95
2019-01-19T17:17:04.054Z,101549.58
2019-01-19T17:20:32.471Z,101546.62
2019-01-19T17:24:11.404Z,101542.39
2019-01-19T17:27:56.370Z,101542.95
2019-01-19T17:31:06.445Z,101542.35
2019-01-19T17:34:38.145Z,101543.83
2019-01-19T17:37:35.379Z,101545.55
2019-01-19T17:41:26.739Z,101549.63
2019-01-19T17:44:55.997Z,101547.06
2019-01-19T17:48:08.328Z,101545.00
2019-01-19T17:51:48.561Z,101544.20
2019-01-19T17:55:12.720Z,101547.19
2019-01-19T17:58:48.283Z,101544.25
2019-01-19T18:02:41.802Z,101546.55
2019-01-19T18:06:21.252Z,101550.42
2019-01-19T18:09:51.932Z,101542.78
2019-01-19T18:13:09.780Z,101538.90
2019-01-19T18:16:37.768Z,101547.47
2019-01-19T18:19:57.288Z,101552.27
2019-01-19T18:23:08.742Z,101550.21
2019-01-19T18:26:36.175Z,101556.41
2019-01-19T18:29:50.030Z,101557.68
2019-01-19T18:33:02.402Z,101554.55
2019-01-19T18:36:30.681Z,101562.52
2019-01-19T18:40:18.408Z,101558.27
2019-01-19T18:43:36.527Z,101552.23
2019-01-19T18:46:52.733Z,101553.13
2019-01-19T18:50:36.481Z,101552.77
2019-01-19T18:54:12.932Z,101550.31
2019-01-19T18:57:48.058Z,101555.84
2019-01-19T19:01:02.403Z,101550.67
2019-01-19T19:04:18.793Z,101551.43
2019-01-19T19:07:43.385Z,101553.91
2019-01-19T19:11:31.520Z,101546.13
2019-01-19T19:14:37.443Z,101547.91
2019-01-19T19:18:09.959Z,101551.56
2019-01-19T19:21:30.531Z,101549.95
2019-01-19T19:53:50.818Z,101539.47
2019-01-19T19:56:20.112Z,101538.81
2019-01-19T19:59:10.937Z,101539.74
2019-01-19T20:01:42.761Z,101540.10
2019-01-19T20:04:13.472Z,101529.36
2019-01-19T20:06:44.257Z,101536.58
2019-01-19T20:09:15.084Z,101536.15
2019-01-19T20:11:45.751Z,101536.13
2019-01-19T20:14:16.500Z,101541.30
2019-01-19T20:16:47.156Z,101537.03
2019-01-19T20:19:18.504Z,101544.02
2019-01-19T20:24:45.614Z,101544.91
2019-01-19T20:27:19.392Z,101538.83
2019-01-19T20:29:50.678Z,101540.12
2019-01-19T20:32:23.290Z,101541.31
2019-01-19T20:34:54.152Z,101534.05
2019-01-19T20:37:24.971Z,101536.20
2019-01-19T21:32:40.290Z,101536.61
2019-01-19T21:35:10.932Z,101536.48
2019-01-19T21:37:41.513Z,101541.84
2019-01-19T21:40:12.782Z,101537.68
2019-01-19T21:42:43.450Z,101546.80
2019-01-19T21:45:18.027Z,101547.64
2019-01-19T21:47:48.858Z,101548.30
2019-01-19T21:50:19.410Z,101546.86
2019-01-19T21:52:50.069Z,101548.55
2019-01-19T21:55:20.875Z,101555.64
2019-01-19T21:58:00.482Z,101549.81
2019-01-19T22:00:31.391Z,101551.25
2019-01-19T22:03:02.068Z,101548.42
2019-01-19T22:05:33.045Z,101553.14
2019-01-19T22:08:05.050Z,101550.44
2019-01-19T22:10:36.603Z,101549.22
2019-01-19T22:13:07.613Z,101542.40
2019-01-19T22:15:38.467Z,101546.75
2019-01-19T22:18:09.136Z,101549.75
2019-01-19T22:20:48.977Z,101554.05
2019-01-19T22:23:18.011Z,101562.27
2019-01-19T22:25:48.720Z,101560.43
2019-01-19T22:28:19.532Z,101560.05
2019-01-19T22:30:50.170Z,101559.16
2019-01-19T22:33:21.417Z,101554.44
2019-01-19T22:35:52.190Z,101556.98
2019-01-19T22:38:22.963Z,101557.45
2019-01-19T22:40:53.939Z,101554.48
2019-01-19T22:43:31.108Z,101548.83
2019-01-19T22:46:01.853Z,101544.47
2019-01-19T22:48:32.635Z,101549.86
2019-01-19T22:51:03.392Z,101541.22
2019-01-19T22:53:34.125Z,101535.66
2019-01-19T22:56:04.898Z,101540.30
2019-01-19T22:58:36.216Z,101537.23
2019-01-19T23:01:39.339Z,101539.53
2019-01-19T23:04:10.148Z,101544.23
2019-01-19T23:06:41.016Z,101550.44
2019-01-19T23:09:13.436Z,101549.23
2019-01-19T23:11:44.150Z,101542.77
2019-01-19T23:14:16.188Z,101544.47
2019-01-19T23:16:46.885Z,101540.48
2019-01-19T23:19:17.561Z,101547.86
2019-01-19T23:21:49.502Z,101542.25
2019-01-19T23:24:20.605Z,101533.62
2019-01-19T23:26:52.169Z,101537.50
2019-01-19T23:29:22.956Z,101531.95
2019-01-19T23:31:53.709Z,101532.37
2019-01-19T23:34:24.582Z,101534.18
2019-01-19T23:36:55.395Z,101539.34
2019-01-19T23:39:26.069Z,101532.45
2019-01-19T23:41:56.810Z,101526.40
2019-01-19T23:44:27.595Z,101528.12
2019-01-19T23:46:58.340Z,101531.16
2019-01-19T23:49:29.066Z,101525.11
2019-01-19T23:51:59.787Z,101523.30
2019-01-19T23:54:30.589Z,101535.84
2019-01-19T23:57:01.364Z,101529.92
2019-01-19T23:59:32.066Z,101529.53
